createdAt,value
2023-04-15T00:00:34.668Z,94591.59
2023-04-15T00:01:38.026Z,94598.59
2023-04-15T00:02:40.056Z,94595.53
2023-04-15T00:03:43.216Z,94596.28
2023-04-15T00:04:45.704Z,94595.53
2023-04-15T00:05:48.563Z,94593.56
2023-04-15T00:06:53.036Z,94588.13
2023-04-15T00:07:57.498Z,94594.75
2023-04-15T00:08:59.637Z,94588.53
2023-04-15T00:10:04.397Z,94591.28
2023-04-15T00:11:06.291Z,94590.50
2023-04-15T00:12:09.691Z,94587.03
2023-04-15T00:13:11.821Z,94590.19
2023-04-15T00:14:15.543Z,94589.44
2023-04-15T00:15:17.515Z,94592.91
2023-04-15T00:16:20.409Z,94583.22
2023-04-15T00:17:22.314Z,94590.63
2023-04-15T00:18:25.595Z,94588.66
2023-04-15T00:19:27.473Z,94581.69
2023-04-15T00:20:30.392Z,94583.66
2023-04-15T00:21:32.681Z,94585.63
2023-04-15T00:22:36.222Z,94573.50
2023-04-15T00:23:39.540Z,94579.41
2023-04-15T00:24:43.013Z,94585.63
2023-04-15T00:25:45.465Z,94581.69
2023-04-15T00:26:49.107Z,94580.91
2023-04-15T00:27:50.944Z,94584.41
2023-04-15T00:28:54.365Z,94586.38
2023-04-15T00:29:56.252Z,94578.63
2023-04-15T00:30:59.394Z,94581.69
2023-04-15T00:32:01.391Z,94573.16
2023-04-15T00:33:04.757Z,94583.66
2023-04-15T00:34:06.603Z,94577.44
2023-04-15T00:35:09.929Z,94570.44
2023-04-15T00:36:11.807Z,94574.72
2023-04-15T00:37:14.803Z,94571.22
2023-04-15T00:38:16.628Z,94573.16
2023-04-15T00:39:20.974Z,94567.72
2023-04-15T00:40:24.784Z,94572.41
2023-04-15T00:41:27.698Z,94570.13
2023-04-15T00:42:29.757Z,94574.38
2023-04-15T00:43:32.642Z,94566.19
2023-04-15T00:44:34.787Z,94568.19
2023-04-15T00:45:37.675Z,94561.94
2023-04-15T00:46:40.417Z,94570.13
2023-04-15T00:47:44.573Z,94562.72
2023-04-15T00:48:47.368Z,94571.66
2023-04-15T00:49:50.209Z,94569.69
2023-04-15T00:50:53.133Z,94568.94
2023-04-15T00:51:56.250Z,94573.63
2023-04-15T00:52:59.277Z,94567.72
2023-04-15T00:54:02.285Z,94571.66
2023-04-15T00:55:07.130Z,94566.97
2023-04-15T00:56:10.138Z,94566.97
2023-04-15T00:57:12.018Z,94568.50
2023-04-15T00:58:15.331Z,94570.44
2023-04-15T00:59:18.630Z,94560.31
2023-04-15T01:00:22.728Z,94568.50
2023-04-15T01:01:26.279Z,94567.72
2023-04-15T01:02:29.479Z,94568.94
2023-04-15T01:03:31.845Z,94561.50
2023-04-15T01:04:34.799Z,94568.94
2023-04-15T01:05:37.262Z,94570.13
2023-04-15T01:06:40.076Z,94567.72
2023-04-15T01:07:41.903Z,94562.72
2023-04-15T01:08:45.394Z,94560.00
2023-04-15T01:09:48.016Z,94559.22
2023-04-15T01:10:52.460Z,94561.84
2023-04-15T01:11:54.359Z,94556.06
2023-04-15T01:12:57.963Z,94558.03
2023-04-15T01:14:01.639Z,94561.50
2023-04-15T01:15:05.891Z,94556.06
2023-04-15T01:16:08.871Z,94556.81
2023-04-15T01:17:12.525Z,94555.28
2023-04-15T01:18:15.818Z,94556.81
2023-04-15T01:19:18.995Z,94560.31
2023-04-15T01:20:22.289Z,94558.03
2023-04-15T01:21:25.162Z,94548.31
2023-04-15T01:22:28.777Z,94552.56
2023-04-15T01:23:32.623Z,94552.91
2023-04-15T01:24:35.876Z,94560.75
2023-04-15T01:25:40.842Z,94557.59
2023-04-15T01:26:44.543Z,94561.84
2023-04-15T01:27:47.672Z,94554.41
2023-04-15T01:28:50.606Z,94552.91
2023-04-15T01:29:53.862Z,94549.41
2023-04-15T01:31:07.535Z,94552.13
2023-04-15T01:32:13.241Z,94542.00
2023-04-15T01:33:16.061Z,94548.19
2023-04-15T01:34:19.049Z,94552.91
2023-04-15T01:35:21.486Z,94559.88
2023-04-15T01:36:24.323Z,94554.41
2023-04-15T01:37:29.658Z,94561.41
2023-04-15T01:38:33.266Z,94560.63
2023-04-15T01:39:35.451Z,94555.16
2023-04-15T01:40:40.918Z,94550.94
2023-04-15T01:41:42.801Z,94548.19
2023-04-15T01:42:45.692Z,94542.00
2023-04-15T01:43:48.473Z,94542.00
2023-04-15T01:44:50.325Z,94544.72
2023-04-15T01:45:53.700Z,94548.97
2023-04-15T01:46:55.616Z,94547.44
2023-04-15T01:47:58.589Z,94547.44
2023-04-15T01:49:01.025Z,94550.16
2023-04-15T01:50:04.169Z,94552.13
2023-04-15T01:51:06.198Z,94554.09
2023-04-15T01:52:09.040Z,94558.03
2023-04-15T01:53:10.964Z,94552.25
2023-04-15T01:54:13.847Z,94553.75
2023-04-15T01:55:16.067Z,94553.75
2023-04-15T01:56:20.435Z,94556.94
2023-04-15T01:57:22.475Z,94556.19
2023-04-15T01:58:25.316Z,94556.19
2023-04-15T01:59:27.371Z,94554.66
2023-04-15T02:00:30.710Z,94550.72
2023-04-15T02:01:32.886Z,94557.69
2023-04-15T02:02:35.997Z,94559.66
2023-04-15T02:03:38.979Z,94560.44
2023-04-15T02:04:42.014Z,94561.63
2023-04-15T02:05:44.422Z,94561.31
2023-04-15T02:06:47.391Z,94558.59
2023-04-15T02:07:49.497Z,94564.03
2023-04-15T02:08:52.362Z,94558.59
2023-04-15T02:09:54.189Z,94570.69
2023-04-15T02:10:57.131Z,94568.41
2023-04-15T02:12:01.897Z,94573.06
2023-04-15T02:13:05.200Z,94561.84
2023-04-15T02:14:07.104Z,94562.63
2023-04-15T02:15:11.180Z,94568.06
2023-04-15T02:16:17.384Z,94566.53
2023-04-15T02:17:20.775Z,94561.09
2023-04-15T02:18:22.692Z,94565.78
2023-04-15T02:19:26.039Z,94565.78
2023-04-15T02:20:28.291Z,94560.31
2023-04-15T02:21:35.401Z,94567.00
2023-04-15T02:22:37.662Z,94563.47
2023-04-15T02:23:40.467Z,94560.44
2023-04-15T02:24:42.321Z,94570.56
2023-04-15T02:25:53.848Z,94566.66
2023-04-15T02:26:56.319Z,94570.56
2023-04-15T02:28:00.552Z,94577.25
2023-04-15T02:29:02.638Z,94566.00
2023-04-15T02:30:07.262Z,94571.47
2023-04-15T02:31:10.163Z,94567.97
2023-04-15T02:32:13.243Z,94576.91
2023-04-15T02:33:15.291Z,94582.38
2023-04-15T02:34:18.071Z,94577.66
2023-04-15T02:35:20.343Z,94570.69
2023-04-15T02:36:23.968Z,94562.53
2023-04-15T02:37:27.817Z,94566.00
2023-04-15T02:38:32.052Z,94564.47
2023-04-15T02:39:34.452Z,94567.19
2023-04-15T02:40:37.325Z,94565.69
2023-04-15T02:41:39.233Z,94565.69
2023-04-15T02:42:44.306Z,94567.19
2023-04-15T02:43:49.786Z,94566.44
2023-04-15T02:44:53.151Z,94561.44
2023-04-15T02:45:55.876Z,94569.91
2023-04-15T02:46:59.525Z,94565.34
2023-04-15T02:48:03.972Z,94571.56
2023-04-15T02:49:06.890Z,94571.56
2023-04-15T02:50:12.712Z,94560.66
2023-04-15T02:51:19.857Z,94573.09
2023-04-15T02:52:22.008Z,94559.91
2023-04-15T02:53:24.818Z,94561.44
2023-04-15T02:54:28.718Z,94558.38
2023-04-15T02:55:31.657Z,94555.66
2023-04-15T02:56:33.583Z,94552.94
2023-04-15T02:57:38.935Z,94560.31
2023-04-15T02:58:44.772Z,94557.59
2023-04-15T02:59:49.255Z,94556.84
2023-04-15T03:00:52.100Z,94556.41
2023-04-15T03:01:55.457Z,94556.41
2023-04-15T03:03:00.576Z,94553.69
2023-04-15T03:04:02.629Z,94550.97
2023-04-15T03:05:06.955Z,94557.19
2023-04-15T03:06:09.062Z,94556.75
2023-04-15T03:07:12.322Z,94557.19
2023-04-15T03:08:15.004Z,94552.94
2023-04-15T03:09:17.891Z,94547.47
2023-04-15T03:10:20.359Z,94556.75
2023-04-15T03:11:23.483Z,94556.75
2023-04-15T03:12:25.965Z,94558.25
2023-04-15T03:13:31.987Z,94561.00
2023-04-15T03:14:38.224Z,94559.00
2023-04-15T03:15:42.496Z,94561.00
2023-04-15T03:16:44.974Z,94557.50
2023-04-15T03:17:50.673Z,94555.53
2023-04-15T03:18:52.628Z,94559.00
2023-04-15T03:19:57.283Z,94554.34
2023-04-15T03:20:59.188Z,94562.53
2023-04-15T03:22:02.134Z,94559.00
2023-04-15T03:23:04.408Z,94558.25
2023-04-15T03:24:07.440Z,94560.56
2023-04-15T03:25:09.911Z,94552.81
2023-04-15T03:26:25.170Z,94554.78
2023-04-15T03:27:27.894Z,94557.50
2023-04-15T03:28:35.092Z,94555.22
2023-04-15T03:29:37.576Z,94562.19
2023-04-15T03:30:42.042Z,94547.47
2023-04-15T03:31:44.263Z,94555.66
2023-04-15T03:32:47.691Z,94557.50
2023-04-15T03:33:50.373Z,94555.53
2023-04-15T03:34:53.326Z,94552.94
2023-04-15T03:35:55.188Z,94554.13
2023-04-15T03:36:58.006Z,94567.75
2023-04-15T03:37:59.872Z,94561.13
2023-04-15T03:39:04.113Z,94563.84
2023-04-15T03:40:07.370Z,94560.31
2023-04-15T03:41:10.513Z,94558.38
2023-04-15T03:42:12.320Z,94564.59
2023-04-15T03:43:15.271Z,94561.88
2023-04-15T03:44:17.153Z,94560.31
2023-04-15T03:45:20.025Z,94561.13
2023-04-15T03:46:23.398Z,94573.53
2023-04-15T03:47:26.242Z,94574.75
2023-04-15T03:48:28.713Z,94576.25
2023-04-15T03:49:31.565Z,94576.25
2023-04-15T03:50:33.405Z,94574.75
2023-04-15T03:51:36.881Z,94574.75
2023-04-15T03:52:38.822Z,94572.44
2023-04-15T03:53:41.679Z,94570.47
2023-04-15T03:54:43.459Z,94575.94
2023-04-15T03:55:46.648Z,94572.44
2023-04-15T03:56:48.500Z,94571.69
2023-04-15T03:57:51.536Z,94571.69
2023-04-15T03:58:53.514Z,94566.22
2023-04-15T03:59:56.381Z,94567.00
2023-04-15T04:00:58.215Z,94568.97
2023-04-15T04:02:03.038Z,94571.69
2023-04-15T04:03:05.205Z,94568.97
2023-04-15T04:04:08.279Z,94582.69
2023-04-15T04:05:10.563Z,94584.97
2023-04-15T04:06:13.467Z,94573.31
2023-04-15T04:07:16.333Z,94579.53
2023-04-15T04:08:19.642Z,94574.84
2023-04-15T04:09:21.759Z,94574.84
2023-04-15T04:10:24.513Z,94581.03
2023-04-15T04:11:26.412Z,94573.66
2023-04-15T04:12:29.246Z,94577.13
2023-04-15T04:13:31.099Z,94571.69
2023-04-15T04:14:34.047Z,94579.88
2023-04-15T04:15:36.270Z,94577.13
2023-04-15T04:16:39.161Z,94573.66
2023-04-15T04:17:42.411Z,94574.84
2023-04-15T04:18:45.355Z,94577.56
2023-04-15T04:19:47.212Z,94574.84
2023-04-15T04:20:50.033Z,94573.31
2023-04-15T04:21:52.563Z,94579.53
2023-04-15T04:22:55.561Z,94574.09
2023-04-15T04:23:57.476Z,94574.09
2023-04-15T04:25:02.536Z,94569.38
2023-04-15T04:26:04.377Z,94575.59
2023-04-15T04:27:07.182Z,94577.13
2023-04-15T04:28:09.057Z,94571.69
2023-04-15T04:29:11.818Z,94577.13
2023-04-15T04:30:13.620Z,94576.38
2023-04-15T04:31:17.025Z,94582.59
2023-04-15T04:32:18.922Z,94571.69
2023-04-15T04:33:23.224Z,94578.31
2023-04-15T04:34:25.001Z,94583.34
2023-04-15T04:35:27.886Z,94572.00
2023-04-15T04:36:29.710Z,94579.41
2023-04-15T04:37:32.503Z,94573.19
2023-04-15T04:38:35.345Z,94584.84
2023-04-15T04:39:37.145Z,94582.25
2023-04-15T04:40:40.086Z,94583.00
2023-04-15T04:41:41.976Z,94579.53
2023-04-15T04:42:44.945Z,94584.97
2023-04-15T04:43:46.767Z,94589.69
2023-04-15T04:44:49.597Z,94584.97
2023-04-15T04:45:51.489Z,94587.72
2023-04-15T04:46:54.344Z,94586.50
2023-04-15T04:47:56.317Z,94583.00
2023-04-15T04:49:00.772Z,94585.75
2023-04-15T04:50:02.838Z,94581.84
2023-04-15T04:51:06.145Z,94584.97
2023-04-15T04:52:09.016Z,94584.97
2023-04-15T04:53:12.030Z,94591.19
2023-04-15T04:54:13.984Z,94586.50
2023-04-15T04:55:16.810Z,94579.53
2023-04-15T04:56:18.678Z,94581.03
2023-04-15T04:57:21.758Z,94579.53
2023-04-15T04:58:23.608Z,94590.44
2023-04-15T04:59:26.433Z,94577.22
2023-04-15T05:00:28.231Z,94581.94
2023-04-15T05:01:31.356Z,94590.44
2023-04-15T05:02:33.806Z,94589.69
2023-04-15T05:03:37.007Z,94591.63
2023-04-15T05:04:41.756Z,94586.16
2023-04-15T05:05:44.564Z,94587.38
2023-04-15T05:06:46.470Z,94588.91
2023-04-15T05:07:50.571Z,94590.44
2023-04-15T05:08:52.430Z,94594.34
2023-04-15T05:09:55.231Z,94588.13
2023-04-15T05:10:57.154Z,94588.59
2023-04-15T05:12:00.044Z,94590.09
2023-04-15T05:13:02.994Z,94586.63
2023-04-15T05:14:04.920Z,94591.31
2023-04-15T05:15:09.049Z,94584.31
2023-04-15T05:16:11.022Z,94583.13
2023-04-15T05:17:14.129Z,94585.09
2023-04-15T05:18:16.133Z,94586.72
2023-04-15T05:19:19.091Z,94586.72
2023-04-15T05:20:22.344Z,94583.66
2023-04-15T05:21:25.939Z,94583.66
2023-04-15T05:22:27.863Z,94578.22
2023-04-15T05:23:30.721Z,94585.22
2023-04-15T05:24:32.717Z,94586.72
2023-04-15T05:25:35.587Z,94581.28
2023-04-15T05:26:37.733Z,94588.25
2023-04-15T05:27:40.593Z,94593.72
2023-04-15T05:28:42.531Z,94586.72
2023-04-15T05:29:45.363Z,94585.22
2023-04-15T05:30:47.441Z,94585.22
2023-04-15T05:31:50.756Z,94589.91
2023-04-15T05:32:52.716Z,94584.88
2023-04-15T05:33:55.810Z,94585.31
2023-04-15T05:34:57.734Z,94596.19
2023-04-15T05:36:02.077Z,94584.53
2023-04-15T05:37:04.075Z,94584.53
2023-04-15T05:38:06.958Z,94584.63
2023-04-15T05:39:09.087Z,94586.94
2023-04-15T05:40:13.052Z,94582.25
2023-04-15T05:41:16.576Z,94580.31
2023-04-15T05:42:21.530Z,94591.50
2023-04-15T05:43:23.396Z,94590.75
2023-04-15T05:44:26.874Z,94589.56
2023-04-15T05:45:28.821Z,94579.44
2023-04-15T05:46:31.794Z,94585.22
2023-04-15T05:47:33.820Z,94590.00
2023-04-15T05:48:36.823Z,94586.06
2023-04-15T05:49:39.208Z,94590.00
2023-04-15T05:50:42.887Z,94583.34
2023-04-15T05:51:48.551Z,94593.06
2023-04-15T05:52:50.512Z,94590.31
2023-04-15T05:53:53.374Z,94589.91
2023-04-15T05:54:56.340Z,94595.34
2023-04-15T05:55:58.238Z,94593.06
2023-04-15T05:57:01.790Z,94590.66
2023-04-15T05:58:03.810Z,94592.16
2023-04-15T05:59:06.633Z,94592.16
2023-04-15T06:00:11.016Z,94586.72
2023-04-15T06:01:14.056Z,94585.22
2023-04-15T06:02:16.346Z,94589.44
2023-04-15T06:03:19.816Z,94588.25
2023-04-15T06:04:22.044Z,94590.00
2023-04-15T06:05:25.368Z,94592.16
2023-04-15T06:06:27.360Z,94593.72
2023-04-15T06:07:32.066Z,94591.00
2023-04-15T06:08:33.932Z,94594.03
2023-04-15T06:09:36.831Z,94590.88
2023-04-15T06:10:38.798Z,94590.09
2023-04-15T06:11:42.025Z,94598.28
2023-04-15T06:12:44.919Z,94592.84
2023-04-15T06:13:46.784Z,94587.38
2023-04-15T06:14:49.631Z,94588.91
2023-04-15T06:15:51.518Z,94589.69
2023-04-15T06:16:54.386Z,94592.06
2023-04-15T06:17:56.545Z,94591.31
2023-04-15T06:18:59.594Z,94592.84
2023-04-15T06:20:01.654Z,94587.38
2023-04-15T06:21:04.797Z,94590.09
2023-04-15T06:22:07.192Z,94596.09
2023-04-15T06:23:11.538Z,94589.78
2023-04-15T06:24:13.526Z,94595.22
2023-04-15T06:25:16.715Z,94600.69
2023-04-15T06:26:18.565Z,94601.88
2023-04-15T06:27:21.499Z,94591.00
2023-04-15T06:28:24.366Z,94593.25
2023-04-15T06:29:26.173Z,94596.78
2023-04-15T06:30:29.030Z,94591.31
2023-04-15T06:31:31.985Z,94586.63
2023-04-15T06:32:34.889Z,94596.31
2023-04-15T06:33:36.888Z,94593.59
2023-04-15T06:34:39.917Z,94592.84
2023-04-15T06:35:41.847Z,94591.31
2023-04-15T06:36:44.698Z,94587.38
2023-04-15T06:37:46.645Z,94589.34
2023-04-15T06:38:51.076Z,94592.84
2023-04-15T06:39:52.899Z,94596.31
2023-04-15T06:40:55.825Z,94597.06
2023-04-15T06:41:57.706Z,94593.59
2023-04-15T06:43:00.541Z,94589.69
2023-04-15T06:44:03.408Z,94590.44
2023-04-15T06:45:06.767Z,94602.09
2023-04-15T06:46:09.617Z,94601.34
2023-04-15T06:47:13.156Z,94597.41
2023-04-15T06:48:16.005Z,94597.84
2023-04-15T06:49:17.886Z,94597.41
2023-04-15T06:50:20.794Z,94598.19
2023-04-15T06:51:26.103Z,94595.47
2023-04-15T06:52:29.548Z,94598.19
2023-04-15T06:53:31.388Z,94598.94
2023-04-15T06:54:35.727Z,94595.00
2023-04-15T06:55:37.603Z,94597.41
2023-04-15T06:56:41.899Z,94590.75
2023-04-15T06:57:43.777Z,94595.88
2023-04-15T06:58:47.147Z,94591.94
2023-04-15T06:59:49.010Z,94593.91
2023-04-15T07:00:52.077Z,94592.72
2023-04-15T07:01:53.985Z,94600.47
2023-04-15T07:02:57.057Z,94589.34
2023-04-15T07:03:59.971Z,94594.34
2023-04-15T07:05:01.824Z,94591.63
2023-04-15T07:06:06.584Z,94597.06
2023-04-15T07:07:09.412Z,94592.41
2023-04-15T07:08:12.262Z,94591.31
2023-04-15T07:09:14.343Z,94585.88
2023-04-15T07:10:18.536Z,94590.09
2023-04-15T07:11:21.063Z,94594.34
2023-04-15T07:12:24.284Z,94592.41
2023-04-15T07:13:26.445Z,94592.41
2023-04-15T07:14:29.456Z,94596.22
2023-04-15T07:15:31.369Z,94593.50
2023-04-15T07:16:34.290Z,94596.53
2023-04-15T07:17:37.352Z,94599.03
2023-04-15T07:18:39.196Z,94592.28
2023-04-15T07:19:42.044Z,94599.69
2023-04-15T07:20:44.144Z,94598.94
2023-04-15T07:21:48.297Z,94601.66
2023-04-15T07:22:50.101Z,94603.19
2023-04-15T07:23:52.991Z,94602.75
2023-04-15T07:24:54.829Z,94594.91
2023-04-15T07:25:59.114Z,94603.41
2023-04-15T07:27:01.839Z,94603.41
2023-04-15T07:28:05.172Z,94596.00
2023-04-15T07:29:07.161Z,94601.03
2023-04-15T07:30:10.977Z,94601.03
2023-04-15T07:31:13.000Z,94598.72
2023-04-15T07:32:15.862Z,94604.50
2023-04-15T07:33:17.772Z,94608.75
2023-04-15T07:34:21.075Z,94610.28
2023-04-15T07:35:23.834Z,94600.91
2023-04-15T07:36:26.761Z,94611.78
2023-04-15T07:37:28.735Z,94610.16
2023-04-15T07:38:43.778Z,94611.69
2023-04-15T07:39:47.207Z,94608.50
2023-04-15T07:40:50.740Z,94601.56
2023-04-15T07:41:54.007Z,94614.84
2023-04-15T07:42:58.334Z,94610.16
2023-04-15T07:44:00.454Z,94614.19
2023-04-15T07:45:03.343Z,94611.78
2023-04-15T07:46:06.909Z,94614.19
2023-04-15T07:47:08.816Z,94611.47
2023-04-15T07:48:11.640Z,94612.22
2023-04-15T07:49:13.568Z,94609.06
2023-04-15T07:50:17.267Z,94606.78
2023-04-15T07:51:19.477Z,94612.69
2023-04-15T07:52:22.322Z,94605.59
2023-04-15T07:53:24.208Z,94616.16
2023-04-15T07:54:27.398Z,94608.31
2023-04-15T07:55:30.590Z,94616.38
2023-04-15T07:56:33.644Z,94616.81
2023-04-15T07:57:37.278Z,94615.50
2023-04-15T07:58:40.113Z,94614.63
2023-04-15T07:59:42.025Z,94608.00
2023-04-15T08:00:44.917Z,94615.28
2023-04-15T08:01:46.898Z,94607.44
2023-04-15T08:02:50.411Z,94612.88
2023-04-15T08:03:53.610Z,94604.16
2023-04-15T08:04:55.637Z,94616.56
2023-04-15T08:05:58.524Z,94609.59
2023-04-15T08:07:00.338Z,94608.84
2023-04-15T08:08:03.602Z,94601.41
2023-04-15T08:09:05.531Z,94609.59
2023-04-15T08:10:09.366Z,94611.13
2023-04-15T08:11:11.519Z,94601.75
2023-04-15T08:12:14.926Z,94608.72
2023-04-15T08:13:18.277Z,94603.25
2023-04-15T08:14:21.147Z,94599.78
2023-04-15T08:15:23.469Z,94598.59
2023-04-15T08:16:28.576Z,94597.81
2023-04-15T08:17:31.509Z,94592.34
2023-04-15T08:18:34.413Z,94599.78
2023-04-15T08:19:37.227Z,94599.34
2023-04-15T08:20:39.165Z,94605.13
2023-04-15T08:21:42.012Z,94603.91
2023-04-15T08:22:43.848Z,94601.53
2023-04-15T08:23:48.291Z,94600.00
2023-04-15T08:24:51.290Z,94609.28
2023-04-15T08:25:53.094Z,94610.13
2023-04-15T08:26:56.693Z,94609.28
2023-04-15T08:27:58.614Z,94600.00
2023-04-15T08:29:03.591Z,94613.63
2023-04-15T08:30:08.025Z,94613.31
2023-04-15T08:31:10.178Z,94605.13
2023-04-15T08:32:13.169Z,94603.91
2023-04-15T08:33:15.048Z,94607.72
2023-04-15T08:34:18.162Z,94611.53
2023-04-15T08:35:19.987Z,94605.00
2023-04-15T08:36:22.874Z,94597.56
2023-04-15T08:37:24.747Z,94608.81
2023-04-15T08:38:27.824Z,94606.41
2023-04-15T08:39:29.647Z,94604.13
2023-04-15T08:40:41.865Z,94597.91
2023-04-15T08:41:47.722Z,94597.16
2023-04-15T08:42:54.551Z,94595.19
2023-04-15T08:43:59.036Z,94596.72
2023-04-15T08:45:06.233Z,94598.97
2023-04-15T08:46:09.726Z,94592.03
2023-04-15T08:47:14.742Z,94593.53
2023-04-15T08:48:17.427Z,94591.59
2023-04-15T08:49:22.489Z,94592.78
2023-04-15T08:50:26.341Z,94595.50
2023-04-15T08:51:29.824Z,94592.78
2023-04-15T08:52:32.517Z,94592.78
2023-04-15T08:53:35.647Z,94589.28
2023-04-15T08:54:38.769Z,94590.03
2023-04-15T08:55:45.730Z,94599.78
2023-04-15T08:56:49.020Z,94602.03
2023-04-15T08:57:51.426Z,94595.81
2023-04-15T08:58:54.791Z,94602.81
2023-04-15T08:59:57.202Z,94593.09
2023-04-15T09:01:02.201Z,94598.97
2023-04-15T09:02:04.303Z,94598.97
2023-04-15T09:03:07.778Z,94596.72
2023-04-15T09:04:12.588Z,94602.94
2023-04-15T09:05:16.513Z,94603.69
2023-04-15T09:06:18.675Z,94601.72
2023-04-15T09:07:21.733Z,94607.97
2023-04-15T09:08:23.603Z,94600.19
2023-04-15T09:09:26.512Z,94602.16
2023-04-15T09:10:28.777Z,94605.97
2023-04-15T09:11:32.034Z,94610.78
2023-04-15T09:12:35.479Z,94606.41
2023-04-15T09:13:38.328Z,94606.41
2023-04-15T09:14:40.623Z,94613.84
2023-04-15T09:15:44.022Z,94611.88
2023-04-15T09:17:00.916Z,94605.22
2023-04-15T09:18:03.873Z,94612.19
2023-04-15T09:19:22.658Z,94612.19
2023-04-15T09:20:24.627Z,94609.03
2023-04-15T09:21:27.747Z,94607.16
2023-04-15T09:22:32.761Z,94612.53
2023-04-15T09:23:36.278Z,94620.06
2023-04-15T09:24:40.349Z,94618.53
2023-04-15T09:25:43.454Z,94611.88
2023-04-15T09:26:45.407Z,94608.72
2023-04-15T09:27:50.065Z,94616.00
2023-04-15T09:28:53.549Z,94618.31
2023-04-15T09:29:56.403Z,94620.59
2023-04-15T09:30:58.628Z,94616.66
2023-04-15T09:32:12.864Z,94623.19
2023-04-15T09:33:14.968Z,94621.22
2023-04-15T09:34:17.984Z,94628.66
2023-04-15T09:35:22.222Z,94615.78
2023-04-15T09:36:25.133Z,94624.75
2023-04-15T09:37:37.206Z,94618.16
2023-04-15T09:38:56.169Z,94622.00
2023-04-15T09:39:58.045Z,94623.19
2023-04-15T09:41:01.041Z,94624.75
2023-04-15T09:42:07.081Z,94630.94
2023-04-15T09:43:12.896Z,94629.31
2023-04-15T09:44:25.619Z,94631.16
2023-04-15T09:45:29.734Z,94633.44
2023-04-15T09:46:43.283Z,94623.28
2023-04-15T09:47:46.701Z,94627.22
2023-04-15T09:49:08.796Z,94631.81
2023-04-15T09:50:11.649Z,94629.41
2023-04-15T09:51:15.044Z,94628.19
2023-04-15T09:52:17.037Z,94635.63
2023-04-15T09:53:21.722Z,94630.47
2023-04-15T09:54:23.576Z,94635.19
2023-04-15T09:55:26.570Z,94633.22
2023-04-15T09:56:32.711Z,94636.25
2023-04-15T09:57:37.259Z,94630.38
2023-04-15T09:58:39.381Z,94626.44
2023-04-15T09:59:42.314Z,94640.84
2023-04-15T10:00:44.246Z,94636.16
2023-04-15T10:01:48.079Z,94637.34
2023-04-15T10:02:52.352Z,94644.03
2023-04-15T10:03:58.380Z,94641.41
2023-04-15T10:05:01.469Z,94637.03
2023-04-15T10:06:05.430Z,94640.97
2023-04-15T10:07:09.530Z,94637.34
2023-04-15T10:08:13.464Z,94637.03
2023-04-15T10:09:16.447Z,94637.78
2023-04-15T10:10:19.613Z,94629.28
2023-04-15T10:11:24.222Z,94634.28
2023-04-15T10:12:28.011Z,94630.06
2023-04-15T10:13:36.030Z,94631.56
2023-04-15T10:14:39.045Z,94635.50
2023-04-15T10:15:46.014Z,94631.22
2023-04-15T10:16:49.571Z,94630.91
2023-04-15T10:17:55.510Z,94633.34
2023-04-15T10:18:58.585Z,94638.66
2023-04-15T10:20:02.713Z,94635.50
2023-04-15T10:21:06.091Z,94631.56
2023-04-15T10:22:09.468Z,94640.50
2023-04-15T10:23:13.439Z,94639.44
2023-04-15T10:24:16.793Z,94633.09
2023-04-15T10:25:19.773Z,94641.28
2023-04-15T10:26:23.215Z,94644.03
2023-04-15T10:27:25.233Z,94639.66
2023-04-15T10:28:28.436Z,94643.13
2023-04-15T10:29:30.396Z,94643.56
2023-04-15T10:30:34.655Z,94636.47
2023-04-15T10:31:38.430Z,94647.06
2023-04-15T10:32:42.233Z,94639.97
2023-04-15T10:33:47.363Z,94640.84
2023-04-15T10:34:54.301Z,94646.75
2023-04-15T10:35:57.747Z,94641.91
2023-04-15T10:37:03.569Z,94650.56
2023-04-15T10:38:37.454Z,94636.47
2023-04-15T10:39:44.414Z,94642.25
2023-04-15T10:40:47.314Z,94645.28
2023-04-15T10:42:06.486Z,94643.66
2023-04-15T10:43:26.555Z,94640.91
2023-04-15T10:44:28.381Z,94643.22
2023-04-15T10:45:34.692Z,94640.81
2023-04-15T10:46:38.217Z,94639.50
2023-04-15T10:47:41.307Z,94642.53
2023-04-15T10:48:49.589Z,94644.06
2023-04-15T10:49:53.598Z,94648.44
2023-04-15T10:51:02.128Z,94646.78
2023-04-15T10:52:04.742Z,94648.31
2023-04-15T10:53:11.355Z,94641.66
2023-04-15T10:54:15.371Z,94646.69
2023-04-15T10:55:21.895Z,94648.19
2023-04-15T10:56:24.404Z,94643.63
2023-04-15T10:57:36.821Z,94646.09
2023-04-15T10:58:43.754Z,94638.81
2023-04-15T11:00:11.403Z,94644.59
2023-04-15T11:01:14.541Z,94658.53
2023-04-15T11:02:16.543Z,94648.06
2023-04-15T11:03:38.482Z,94656.13
2023-04-15T11:04:55.539Z,94653.06
2023-04-15T11:05:58.531Z,94650.25
2023-04-15T11:07:06.687Z,94648.50
2023-04-15T11:08:10.705Z,94645.78
2023-04-15T11:09:32.369Z,94641.97
2023-04-15T11:10:54.367Z,94647.75
2023-04-15T11:12:07.443Z,94649.72
2023-04-15T11:13:16.817Z,94646.69
2023-04-15T11:14:19.720Z,94649.72
2023-04-15T11:15:29.940Z,94649.72
2023-04-15T11:16:33.005Z,94646.34
2023-04-15T11:17:35.041Z,94653.00
2023-04-15T11:18:37.998Z,94649.16
2023-04-15T11:19:40.011Z,94656.03
2023-04-15T11:20:46.067Z,94653.47
2023-04-15T11:21:49.006Z,94655.53
2023-04-15T11:22:51.949Z,94649.16
2023-04-15T11:23:55.123Z,94647.66
2023-04-15T11:24:57.083Z,94649.63
2023-04-15T11:26:00.858Z,94654.34
2023-04-15T11:27:04.096Z,94657.19
2023-04-15T11:28:07.494Z,94658.06
2023-04-15T11:29:18.752Z,94659.84
2023-04-15T11:30:22.837Z,94662.25
2023-04-15T11:31:28.629Z,94658.00
2023-04-15T11:32:30.670Z,94660.09
2023-04-15T11:33:33.641Z,94659.75
2023-04-15T11:34:36.706Z,94664.91
2023-04-15T11:35:40.972Z,94667.31
2023-04-15T11:36:45.314Z,94669.72
2023-04-15T11:37:48.414Z,94669.72
2023-04-15T11:38:51.375Z,94669.72
2023-04-15T11:39:53.411Z,94668.19
2023-04-15T11:40:56.590Z,94667.44
2023-04-15T11:41:58.474Z,94666.34
2023-04-15T11:43:08.431Z,94666.03
2023-04-15T11:44:17.859Z,94676.16
2023-04-15T11:45:20.023Z,94673.88
2023-04-15T11:46:29.718Z,94683.59
2023-04-15T11:47:31.604Z,94676.63
2023-04-15T11:48:36.709Z,94679.34
2023-04-15T11:49:41.521Z,94677.38
2023-04-15T11:50:44.515Z,94679.34
2023-04-15T11:51:48.787Z,94676.28
2023-04-15T11:52:54.222Z,94676.28
2023-04-15T11:53:57.316Z,94670.94
2023-04-15T11:55:03.582Z,94679.91
2023-04-15T11:56:07.506Z,94677.94
2023-04-15T11:57:09.424Z,94676.41
2023-04-15T11:58:16.144Z,94676.53
2023-04-15T11:59:19.280Z,94676.53
2023-04-15T12:00:21.300Z,94678.19
2023-04-15T12:01:33.012Z,94683.50
2023-04-15T12:02:37.377Z,94682.31
2023-04-15T12:03:42.514Z,94679.13
2023-04-15T12:04:46.010Z,94682.66
2023-04-15T12:06:12.786Z,94690.84
2023-04-15T12:07:17.084Z,94689.28
2023-04-15T12:08:18.985Z,94687.88
2023-04-15T12:09:22.581Z,94686.56
2023-04-15T12:10:25.366Z,94692.03
2023-04-15T12:11:36.868Z,94694.00
2023-04-15T12:12:42.244Z,94698.69
2023-04-15T12:13:44.310Z,94700.22
2023-04-15T12:14:47.305Z,94700.97
2023-04-15T12:15:50.232Z,94699.03
2023-04-15T12:16:55.024Z,94704.03
2023-04-15T12:18:00.200Z,94700.53
2023-04-15T12:19:08.964Z,94702.03
2023-04-15T12:20:12.388Z,94694.66
2023-04-15T12:21:14.693Z,94695.41
2023-04-15T12:22:19.943Z,94695.72
2023-04-15T12:23:21.873Z,94701.50
2023-04-15T12:24:24.810Z,94694.84
2023-04-15T12:25:34.691Z,94700.63
2023-04-15T12:26:39.211Z,94703.34
2023-04-15T12:27:42.486Z,94707.16
2023-04-15T12:28:44.528Z,94706.75